ADDS METAR Data INFO
IDs: Format: Raw Decoded Include TAF

Data at: 1912 UTC 23 Apr 2018

KIRS 231855Z AUTO 11009G14KT 10SM CLR 22/06 A3011 RMK AO2 T02230059
KIRS 231835Z AUTO 13012G20KT 10SM CLR 21/06 A3012 RMK AO2 T02140062
KIRS 231815Z AUTO 13012G17KT 10SM CLR 22/07 A3013 RMK AO2 T02170065
KIRS 231755Z AUTO 11006KT 10SM CLR 21/06 A3013 RMK AO2 T02070061 10210 20070
KIRS 231735Z AUTO 15008KT 10SM CLR 20/06 A3014 RMK AO2 T01980059
KIRS 231715Z AUTO 10004KT 10SM CLR 20/06 A3015 RMK AO2 T02010056
KIRS 231655Z AUTO 14005KT 10SM CLR 19/05 A3016 RMK AO2 T01870054
KIRS 231635Z AUTO 13007KT 10SM CLR 19/05 A3017 RMK AO2 T01880047
KIRS 231615Z AUTO 11008KT 10SM CLR 19/04 A3017 RMK AO2 T01900043
KIRS 231555Z AUTO 12009KT 070V130 10SM CLR 18/04 A3017 RMK AO2 T01800038
KIRS 231535Z AUTO 08006KT 10SM CLR 17/03 A3018 RMK AO2 T01710028
KIRS 231515Z AUTO 10006KT 10SM CLR 17/03 A3018 RMK AO2 T01670025
KIRS 231455Z AUTO 09006KT 10SM CLR 16/02 A3018 RMK AO2 T01600019
KIRS 231436Z AUTO 09006KT 10SM CLR 15/02 A3018 RMK AO2 T01530017
KIRS 231415Z AUTO 06008KT 10SM CLR 13/01 A3018 RMK AO2 T01320006
KIRS 231355Z AUTO 07009KT 10SM CLR 13/00 A3019 RMK AO2 T01270001
KIRS 231335Z AUTO 06007KT 10SM CLR 12/00 A3019 RMK AO2 T01171003
KIRS 231315Z AUTO 06008KT 10SM CLR 11/M01 A3019 RMK AO2 T01081007
KIRS 231255Z AUTO 09007KT 10SM CLR 10/M01 A3020 RMK AO2 T00981014
KIRS 231235Z AUTO 07006KT 10SM CLR 08/M02 A3020 RMK AO2 T00831020
KIRS 231215Z AUTO 06010KT 10SM CLR 08/M02 A3020 RMK AO2 T00761025
KIRS 231155Z AUTO 06008KT 10SM CLR 07/M03 A3021 RMK AO2 T00671027 10074 20050
KIRS 231135Z AUTO 06005KT 10SM CLR 06/M03 A3020 RMK AO2 T00601030
KIRS 231115Z AUTO 05009KT 10SM CLR 06/M03 A3019 RMK AO2 T00551032
KIRS 231055Z AUTO 05008KT 10SM CLR 06/M04 A3019 RMK AO2 T00561037
KIRS 231035Z AUTO 06006KT 10SM CLR 05/M04 A3020 RMK AO2 T00531040
KIRS 231015Z AUTO 05006KT 10SM CLR 05/M04 A3020 RMK AO2 T00501037
KIRS 230955Z AUTO 05005KT 10SM CLR 05/M04 A3020 RMK AO2 T00501038
KIRS 230935Z AUTO 05005KT 7SM CLR 05/M04 A3020 RMK AO2 T00511040
KIRS 230915Z AUTO 06004KT 10SM CLR 06/M04 A3020 RMK AO2 T00561040
KIRS 230855Z AUTO 05004KT 10SM CLR 06/M04 A3020 RMK AO2 T00641041
KIRS 230835Z AUTO 06007KT 10SM CLR 07/M04 A3020 RMK AO2 T00691042
KIRS 230815Z AUTO 08007KT 10SM CLR 07/M04 A3021 RMK AO2 T00691042
KIRS 230755Z AUTO 08007KT 10SM CLR 07/M04 A3021 RMK AO2 T00661043
KIRS 230735Z AUTO 08007KT 10SM CLR 07/M04 A3021 RMK AO2 T00661045
KIRS 230715Z AUTO 08007KT 10SM CLR 06/M04 A3021 RMK AO2 T00631045
KIRS 230655Z AUTO 09007KT 10SM CLR 07/M05 A3022 RMK AO2 T00681049
KIRS 230635Z AUTO 10007KT 10SM CLR 07/M05 A3023 RMK AO2 T00711050
KIRS 230615Z AUTO 10007KT 10SM CLR 07/M05 A3024 RMK AO2 T00711049
KIRS 230555Z AUTO 10007KT 10SM CLR 07/M05 A3024 RMK AO2 T00731048 10138 20071 401790055
KIRS 230535Z AUTO 10007KT 10SM CLR 07/M05 A3025 RMK AO2 T00741046
KIRS 230515Z AUTO 10008KT 10SM CLR 08/M05 A3025 RMK AO2 T00771047
KIRS 230455Z AUTO 11006KT 10SM CLR 08/M04 A3025 RMK AO2 T00801045
KIRS 230435Z AUTO 09006KT 10SM CLR 08/M04 A3025 RMK AO2 T00751044
KIRS 230415Z AUTO 07006KT 10SM CLR 08/M05 A3025 RMK AO2 T00801046
KIRS 230355Z AUTO 08007KT 10SM CLR 08/M04 A3025 RMK AO2 T00771045
KIRS 230335Z AUTO 08007KT 10SM CLR 08/M05 A3026 RMK AO2 T00811047
KIRS 230315Z AUTO 08009KT 10SM CLR 09/M05 A3027 RMK AO2 T00851050
KIRS 230255Z AUTO 09007KT 10SM CLR 09/M05 A3028 RMK AO2 T00901051
KIRS 230235Z AUTO 10007KT 10SM CLR 09/M05 A3029 RMK AO2 T00941048
KIRS 230215Z AUTO 10006KT 10SM CLR 10/M05 A3029 RMK AO2 T00991048
KIRS 230155Z AUTO 11007KT 10SM CLR 10/M04 A3029 RMK AO2 T01041044
KIRS 230135Z AUTO 11007KT 10SM CLR 11/M05 A3029 RMK AO2 T01081046
KIRS 230115Z AUTO 12006KT 10SM CLR 11/M04 A3029 RMK AO2 T01101045
KIRS 230055Z AUTO 12006KT 10SM CLR 12/M05 A3028 RMK AO2 T01161048
KIRS 230035Z AUTO 12007KT 10SM CLR 12/M05 A3028 RMK AO2 T01241050
KIRS 230015Z AUTO 12007KT 10SM CLR 13/M05 A3028 RMK AO2 T01321054
KIRS 222355Z AUTO 12009KT 10SM CLR 14/M05 A3027 RMK AO2 T01391052 10179 20139
KIRS 222335Z AUTO 11011KT 10SM CLR 14/M05 A3027 RMK AO2 T01431048
KIRS 222315Z AUTO 12010KT 10SM CLR 15/M05 A3026 RMK AO2 T01511047
KIRS 222255Z AUTO 12011G16KT 10SM CLR 15/M04 A3026 RMK AO2 T01531045
KIRS 222235Z AUTO 11012G17KT 10SM CLR 16/M05 A3026 RMK AO2 T01621047
KIRS 222215Z AUTO 10011G18KT 10SM CLR 17/M05 A3027 RMK AO2 T01651049
KIRS 222155Z AUTO 10011G17KT 10SM CLR 17/M04 A3027 RMK AO2 T01701040
KIRS 222135Z AUTO 11013G18KT 10SM CLR 17/M04 A3027 RMK AO2 T01681045
KIRS 222115Z AUTO 13008KT 10SM CLR 17/M04 A3028 RMK AO2 T01741040
KIRS 222055Z AUTO 11014KT 10SM CLR 17/M04 A3028 RMK AO2 T01741045
KIRS 222035Z AUTO 11013G20KT 10SM CLR 17/M04 A3028 RMK AO2 T01741037
KIRS 222015Z AUTO 08014KT 10SM CLR 17/M04 A3028 RMK AO2 T01711037
KIRS 221955Z AUTO 10008G19KT 10SM CLR 16/M05 A3029 RMK AO2 T01641049
KIRS 221935Z AUTO 10010G15KT 10SM CLR 18/M04 A3030 RMK AO2 T01751039
KIRS 221915Z AUTO 12011G18KT 10SM CLR 18/M04 A3031 RMK AO2 T01761045
KIRS 221855Z AUTO 08011G16KT 10SM CLR 18/M03 A3031 RMK AO2 T01781032
KIRS 221835Z AUTO 12010G18KT 10SM CLR 17/M05 A3032 RMK AO2 T01711050
KIRS 221815Z AUTO 10011G18KT 10SM CLR 17/M05 A3033 RMK AO2 T01691047
KIRS 221755Z AUTO 11010KT 10SM CLR 17/M05 A3033 RMK AO2 T01661052 10167 20067
KIRS 221735Z AUTO 12012G19KT 10SM CLR 16/M06 A3034 RMK AO2 T01621057
KIRS 221715Z AUTO 08014KT 10SM CLR 16/M04 A3034 RMK AO2 T01621041
KIRS 221655Z AUTO 11010G20KT 10SM CLR 16/M03 A3035 RMK AO2 T01591031
KIRS 221635Z AUTO 10011G16KT 10SM CLR 15/M03 A3036 RMK AO2 T01541026
KIRS 221615Z AUTO 08012G18KT 10SM CLR 15/M03 A3036 RMK AO2 T01501026
KIRS 221555Z AUTO 10012G17KT 10SM CLR 14/M03 A3037 RMK AO2 T01411029
KIRS 221535Z AUTO 09010KT 10SM CLR 14/M03 A3037 RMK AO2 T01351029
KIRS 221515Z AUTO 09012G18KT 10SM CLR 13/M03 A3038 RMK AO2 T01291034
KIRS 221455Z AUTO 10009G15KT 10SM CLR 12/M03 A3038 RMK AO2 T01241031
KIRS 221435Z AUTO 10011KT 10SM CLR 12/M04 A3039 RMK AO2 T01191039
KIRS 221415Z AUTO 10008KT 10SM CLR 11/M04 A3039 RMK AO2 T01131043
KIRS 221355Z AUTO 11008KT 10SM CLR 11/M04 A3039 RMK AO2 T01081043
KIRS 221335Z AUTO 12010KT 10SM CLR 10/M04 A3039 RMK AO2 T01021043
KIRS 221315Z AUTO 12006KT 10SM CLR 09/M05 A3039 RMK AO2 T00941049
KIRS 221255Z AUTO 11007KT 10SM CLR 09/M05 A3038 RMK AO2 T00871052
KIRS 221235Z AUTO 11006KT 10SM CLR 08/M06 A3038 RMK AO2 T00811057
KIRS 221215Z AUTO 09005KT 10SM CLR 08/M04 A3037 RMK AO2 T00761044
KIRS 221155Z AUTO 07005KT 10SM CLR 07/M04 A3037 RMK AO2 T00661039 10089 20055
KIRS 221135Z AUTO 06004KT 10SM CLR 06/M05 A3037 RMK AO2 T00581046
KIRS 221115Z AUTO 06004KT 10SM CLR 06/M05 A3036 RMK AO2 T00581052
KIRS 221055Z AUTO 05003KT 10SM SCT095 06/M05 A3036 RMK AO2 T00581054
KIRS 221035Z AUTO 00000KT 10SM OVC095 06/M05 A3036 RMK AO2 T00631049
KIRS 221015Z AUTO 08003KT 10SM OVC095 06/M04 A3036 RMK AO2 T00631044
KIRS 220955Z AUTO 09003KT 10SM OVC095 07/M04 A3035 RMK AO2 T00681042
KIRS 220935Z AUTO 13003KT 10SM BKN095 OVC120 07/M05 A3036 RMK AO2 T00661048
KIRS 220915Z AUTO 10005KT 10SM SCT095 BKN120 07/M06 A3034 RMK AO2 T00681058
KIRS 220855Z AUTO 07008KT 10SM OVC110 07/M05 A3034 RMK AO2 T00661051
KIRS 220835Z AUTO 09005KT 10SM OVC110 06/M04 A3035 RMK AO2 T00611039
KIRS 220815Z AUTO 10003KT 10SM BKN110 06/M05 A3036 RMK AO2 T00591048
KIRS 220755Z AUTO 11004KT 10SM SCT120 06/M05 A3036 RMK AO2 T00621048
KIRS 220735Z AUTO 12003KT 10SM SCT120 07/M04 A3036 RMK AO2 T00711045
KIRS 220715Z AUTO 12004KT 10SM CLR 07/M02 A3036 RMK AO2 T00681025